메인 페이지
METAR-TAF:

METAR-TAF

공항 :

Nawabshah, 파키스탄

위도: 26-15N, 경도: 068-22E, 고도: 37m

현재 날씨관측

예보는 28분 전, 19:00시(UTC)에 발표되었습니다.
12kt
온도 29°C
습도 40%
기압 1009 hPa
시정: 4000m
연기

METAR: OPNH 041900Z 18012KT 4000 FU NSC 29/14 Q1009 NOSIG

시각: 00:28 (19:28 UTC)

예보

예보는 3 시간 58분 전, 15:30시(UTC)에 발표되었습니다.
예보 대상 시간: 04일 18시부터 05일 24시까지 (UTC)
8kt
시정: 3000m
연기
05일 0800시부터 (UTC)
10kt
시정: 5000m
연기
전환 중
05일 18시부터 05일 20시까지 (UTC)
8kt
시정: 4000m
연기

TAF: OPNH 041530Z 0418/0524 36008KT 3000 FU NSC FM050800 27010KT 5000 FU NSC BECMG 0518/0520 36008KT 4000 FU NSC

4,000개 이상의 공항 관측 자료 및 예보 (METAR 및 TAF 보고).

지도상에서 검색 가능한 기상관측소가 노란 점과 빨간 점으로 표시되어 있습니다.

기상관측소 명을 보려면 표시 위로 마우스를 이동하세요.

날씨 관측과 예보를 보려면 클릭하세요.

지도 변경 : 확대하려면 엑스 표시가 있는 녹색 버튼, 축소하려면 빼기 표시가 있는 녹색 버튼, 다음 페이지의 지도를 보려면 녹색 화살표를 클릭하세요.


METAR-TAF: